createdAt,value
2019-01-28T00:00:52.364Z,162.13
2019-01-28T00:03:21.544Z,196.67
2019-01-28T00:05:50.719Z,118.17
2019-01-28T00:08:19.874Z,85.40
2019-01-28T00:10:49.056Z,77.87
2019-01-28T00:13:18.176Z,73.37
2019-01-28T00:15:47.975Z,138.73
2019-01-28T00:18:17.155Z,145.27
2019-01-28T00:20:46.339Z,99.40
2019-01-28T00:23:15.542Z,81.73
2019-01-28T00:25:44.709Z,79.40
2019-01-28T00:28:14.759Z,80.70
2019-01-28T00:30:43.958Z,82.60
2019-01-28T00:33:13.152Z,87.10
2019-01-28T00:35:42.329Z,86.23
2019-01-28T00:38:11.508Z,84.30
2019-01-28T00:40:40.685Z,75.93
2019-01-28T00:43:09.860Z,119.10
2019-01-28T00:45:39.050Z,110.77
2019-01-28T00:48:08.181Z,127.20
2019-01-28T00:50:37.335Z,139.73
2019-01-28T00:53:06.504Z,137.40
2019-01-28T00:55:35.692Z,158.70
2019-01-28T00:58:04.869Z,103.00
2019-01-28T01:00:34.100Z,103.17
2019-01-28T01:03:03.287Z,77.87
2019-01-28T01:05:32.462Z,68.40
2019-01-28T01:08:01.631Z,63.53
2019-01-28T01:10:30.842Z,61.77
2019-01-28T01:13:00.022Z,65.43
2019-01-28T01:15:29.203Z,59.13
2019-01-28T01:17:58.389Z,73.90
2019-01-28T01:20:27.595Z,137.57
2019-01-28T01:22:56.766Z,144.13
2019-01-28T01:25:25.992Z,94.70
2019-01-28T01:27:55.589Z,66.33
2019-01-28T01:30:24.797Z,64.30
2019-01-28T01:32:53.972Z,59.50
2019-01-28T01:35:23.428Z,59.87
2019-01-28T01:37:52.631Z,63.03
2019-01-28T01:40:21.801Z,60.53
2019-01-28T01:42:50.964Z,65.70
2019-01-28T01:45:20.128Z,59.93
2019-01-28T01:47:49.244Z,57.57
2019-01-28T01:50:19.499Z,64.17
2019-01-28T01:52:48.685Z,53.50
2019-01-28T01:55:17.870Z,54.77
2019-01-28T01:57:47.054Z,57.53
2019-01-28T02:00:18.170Z,52.13
2019-01-28T02:02:47.336Z,50.80
2019-01-28T02:05:16.503Z,50.43
2019-01-28T02:07:45.777Z,54.33
2019-01-28T02:10:16.552Z,52.70
2019-01-28T02:12:45.747Z,51.07
2019-01-28T02:15:16.979Z,62.23
2019-01-28T02:17:46.262Z,55.63
2019-01-28T02:20:15.592Z,51.90
2019-01-28T02:22:44.762Z,56.03
2019-01-28T02:25:14.225Z,61.73
2019-01-28T02:27:43.408Z,52.47
2019-01-28T02:30:14.551Z,56.93
2019-01-28T02:32:43.753Z,56.97
2019-01-28T02:35:13.671Z,57.23
2019-01-28T02:37:42.896Z,54.83
2019-01-28T02:40:18.508Z,56.73
2019-01-28T02:42:47.673Z,58.43
2019-01-28T02:45:17.302Z,50.63
2019-01-28T02:47:46.407Z,49.03
2019-01-28T02:50:17.169Z,54.37
2019-01-28T02:52:46.656Z,52.97
2019-01-28T02:55:16.481Z,50.67
2019-01-28T02:57:46.390Z,50.00
2019-01-28T03:00:17.962Z,52.47
2019-01-28T03:02:47.114Z,51.03
2019-01-28T03:05:16.867Z,53.40
2019-01-28T03:07:46.082Z,52.20
2019-01-28T03:10:20.052Z,47.30
2019-01-28T03:12:49.361Z,49.30
2019-01-28T03:15:19.139Z,46.50
2019-01-28T03:17:48.453Z,49.37
2019-01-28T03:20:17.964Z,51.43
2019-01-28T03:22:47.795Z,45.27
2019-01-28T03:25:17.268Z,41.23
2019-01-28T03:27:46.484Z,45.77
2019-01-28T03:30:17.588Z,45.83
2019-01-28T03:32:46.799Z,44.77
2019-01-28T03:35:15.994Z,47.27
2019-01-28T03:37:45.166Z,29.77
2019-01-28T03:40:18.773Z,42.67
2019-01-28T03:42:47.974Z,39.20
2019-01-28T03:45:18.492Z,43.63
2019-01-28T03:47:47.672Z,48.37
2019-01-28T03:50:17.058Z,49.20
2019-01-28T03:52:46.310Z,42.53
2019-01-28T03:55:15.479Z,41.60
2019-01-28T03:57:44.688Z,38.53
2019-01-28T04:00:16.657Z,41.13
2019-01-28T04:02:45.835Z,41.50
2019-01-28T04:05:15.012Z,43.60
2019-01-28T04:07:44.205Z,45.53
2019-01-28T04:10:18.433Z,40.43
2019-01-28T04:12:47.645Z,43.83
2019-01-28T04:15:17.030Z,40.83
2019-01-28T04:17:46.740Z,42.80
2019-01-28T04:20:16.051Z,37.30
2019-01-28T04:22:45.224Z,37.67
2019-01-28T04:25:15.052Z,45.87
2019-01-28T04:27:44.212Z,37.93
2019-01-28T04:30:18.536Z,42.13
2019-01-28T04:32:47.705Z,41.03
2019-01-28T04:35:16.913Z,39.77
2019-01-28T04:37:46.085Z,39.27
2019-01-28T04:40:15.489Z,52.07
2019-01-28T04:42:44.728Z,98.53
2019-01-28T04:45:15.645Z,236.47
2019-01-28T04:47:44.789Z,117.83
2019-01-28T04:50:16.088Z,108.07
2019-01-28T04:52:45.256Z,74.93
2019-01-28T04:55:14.669Z,76.07
2019-01-28T04:57:44.709Z,62.80
2019-01-28T05:00:17.124Z,46.80
2019-01-28T05:02:46.291Z,40.23
2019-01-28T05:05:15.465Z,41.00
2019-01-28T05:07:44.668Z,45.83
2019-01-28T05:10:14.751Z,40.70
2019-01-28T05:12:43.995Z,42.43
2019-01-28T05:15:13.887Z,35.97
2019-01-28T05:17:43.085Z,41.03
2019-01-28T05:20:13.424Z,41.60
2019-01-28T05:22:42.615Z,41.40
2019-01-28T05:25:12.710Z,41.37
2019-01-28T05:27:41.843Z,39.67
2019-01-28T05:30:20.016Z,42.73
2019-01-28T05:32:49.115Z,44.37
2019-01-28T05:35:18.645Z,41.30
2019-01-28T05:37:47.843Z,37.30
2019-01-28T05:40:19.118Z,42.70
2019-01-28T05:42:48.279Z,39.70
2019-01-28T05:45:17.565Z,40.33
2019-01-28T05:47:47.003Z,40.40
2019-01-28T05:50:16.943Z,40.10
2019-01-28T05:52:46.123Z,39.57
2019-01-28T05:55:15.442Z,42.40
2019-01-28T05:57:44.618Z,41.43
2019-01-28T06:00:16.912Z,43.47
2019-01-28T06:02:46.071Z,40.63
2019-01-28T06:05:15.248Z,42.70
2019-01-28T06:07:44.447Z,41.50
2019-01-28T06:10:13.646Z,39.37
2019-01-28T06:12:42.820Z,44.50
2019-01-28T06:15:13.615Z,47.03
2019-01-28T06:17:42.728Z,48.30
2019-01-28T06:20:15.343Z,47.17
2019-01-28T06:22:44.538Z,56.23
2019-01-28T06:25:13.701Z,76.30
2019-01-28T06:27:43.207Z,77.47
2019-01-28T06:30:19.150Z,55.67
2019-01-28T06:32:48.921Z,57.57
2019-01-28T06:35:18.121Z,58.83
2019-01-28T06:37:47.299Z,64.07
2019-01-28T06:40:18.649Z,51.40
2019-01-28T06:42:47.865Z,51.60
2019-01-28T06:45:17.710Z,51.03
2019-01-28T06:47:47.312Z,50.67
2019-01-28T06:50:18.475Z,48.37
2019-01-28T06:52:47.677Z,46.50
2019-01-28T06:55:16.926Z,48.90
2019-01-28T06:57:46.343Z,51.00
2019-01-28T07:00:24.377Z,56.03
2019-01-28T07:02:56.214Z,51.20
2019-01-28T07:05:25.401Z,50.13
2019-01-28T07:07:54.572Z,101.43
2019-01-28T07:10:23.788Z,105.70
2019-01-28T07:12:53.776Z,58.63
2019-01-28T07:15:23.279Z,101.30
2019-01-28T07:17:55.152Z,87.90
2019-01-28T07:20:25.908Z,51.50
2019-01-28T07:22:55.117Z,56.30
2019-01-28T07:25:24.293Z,124.67
2019-01-28T07:27:53.483Z,132.97
2019-01-28T07:30:33.448Z,161.47
2019-01-28T07:33:02.695Z,66.33
2019-01-28T07:35:32.160Z,122.70
2019-01-28T07:38:01.341Z,69.10
2019-01-28T07:40:30.562Z,152.27
2019-01-28T07:43:00.082Z,115.77
2019-01-28T07:45:44.605Z,80.43
2019-01-28T07:48:09.459Z,78.30
2019-01-28T07:50:40.930Z,123.07
2019-01-28T07:53:10.128Z,69.13
2019-01-28T07:55:39.316Z,165.60
2019-01-28T07:58:08.541Z,142.73
2019-01-28T08:00:37.752Z,109.60
2019-01-28T08:03:07.087Z,125.23
2019-01-28T08:05:36.283Z,116.87
2019-01-28T08:08:05.959Z,142.33
2019-01-28T08:10:35.143Z,108.63
2019-01-28T08:13:04.898Z,128.63
2019-01-28T08:15:34.209Z,90.17
2019-01-28T08:18:10.315Z,115.17
2019-01-28T08:20:34.444Z,137.93
2019-01-28T08:23:03.625Z,74.57
2019-01-28T08:25:32.810Z,112.57
2019-01-28T08:28:01.995Z,118.03
2019-01-28T08:30:34.815Z,88.40
2019-01-28T08:33:04.057Z,78.57
2019-01-28T08:35:34.193Z,70.57
2019-01-28T08:38:03.386Z,88.03
2019-01-28T08:40:33.138Z,75.17
2019-01-28T08:43:02.327Z,72.73
2019-01-28T08:45:31.523Z,59.07
2019-01-28T08:48:02.982Z,89.27
2019-01-28T08:50:32.190Z,74.00
2019-01-28T08:53:01.303Z,71.53
2019-01-28T08:55:30.490Z,75.40
2019-01-28T08:57:59.703Z,71.70
2019-01-28T09:00:31.477Z,83.80
2019-01-28T09:03:00.708Z,76.30
2019-01-28T09:05:29.986Z,103.97
2019-01-28T09:07:59.384Z,82.70
2019-01-28T09:10:29.056Z,69.53
2019-01-28T09:12:58.317Z,108.73
2019-01-28T09:15:27.529Z,67.83
2019-01-28T09:17:56.850Z,52.67
2019-01-28T09:20:26.169Z,53.57
2019-01-28T09:22:55.455Z,66.67
2019-01-28T09:25:25.223Z,61.17
2019-01-28T09:27:55.352Z,62.93
2019-01-28T09:30:26.377Z,65.80
2019-01-28T09:32:55.588Z,63.57
2019-01-28T09:35:24.794Z,83.27
2019-01-28T09:37:54.021Z,79.73
2019-01-28T09:40:24.556Z,70.17
2019-01-28T09:42:53.761Z,103.13
2019-01-28T09:45:26.598Z,96.20
2019-01-28T09:47:55.916Z,108.83
2019-01-28T09:50:25.185Z,103.30
2019-01-28T09:52:54.404Z,94.37
2019-01-28T09:55:23.646Z,56.03
2019-01-28T09:57:52.877Z,61.47
2019-01-28T10:00:37.854Z,63.07
2019-01-28T10:03:08.625Z,60.90
2019-01-28T10:05:37.938Z,70.27
2019-01-28T10:08:07.618Z,83.90
2019-01-28T10:10:36.863Z,65.33
2019-01-28T10:13:06.659Z,75.23
2019-01-28T10:15:35.847Z,70.90
2019-01-28T10:18:05.466Z,68.60
2019-01-28T10:20:37.195Z,83.53
2019-01-28T10:23:06.416Z,78.70
2019-01-28T10:25:35.642Z,77.53
2019-01-28T10:28:04.894Z,83.47
2019-01-28T10:30:36.082Z,90.97
2019-01-28T10:33:06.026Z,85.60
2019-01-28T10:35:38.125Z,108.20
2019-01-28T10:38:08.140Z,91.20
2019-01-28T10:40:38.293Z,86.43
2019-01-28T10:43:09.285Z,85.87
2019-01-28T10:45:38.925Z,85.23
2019-01-28T10:48:26.946Z,67.20
2019-01-28T10:50:57.913Z,64.67
2019-01-28T10:53:27.058Z,61.47
2019-01-28T10:55:56.304Z,62.57
2019-01-28T10:58:25.555Z,57.23
2019-01-28T11:00:54.728Z,64.40
2019-01-28T11:03:25.379Z,62.40
2019-01-28T11:05:54.758Z,62.57
2019-01-28T11:08:24.052Z,62.93
2019-01-28T11:10:53.280Z,68.23
2019-01-28T11:13:22.450Z,66.97
2019-01-28T11:15:51.932Z,67.00
2019-01-28T11:18:24.343Z,74.63
2019-01-28T11:20:53.574Z,108.93
2019-01-28T11:23:22.804Z,91.63
2019-01-28T11:25:51.899Z,71.37
2019-01-28T11:28:21.240Z,71.03
2019-01-28T11:30:58.419Z,67.70
2019-01-28T11:33:27.788Z,73.27
2019-01-28T11:36:04.780Z,67.37
2019-01-28T11:38:27.800Z,76.03
2019-01-28T11:40:58.157Z,71.70
2019-01-28T11:43:27.358Z,75.23
2019-01-28T11:46:01.940Z,68.17
2019-01-28T11:48:32.765Z,70.50
2019-01-28T11:51:01.959Z,67.63
2019-01-28T11:53:31.194Z,67.83
2019-01-28T11:56:00.849Z,62.47
2019-01-28T11:58:30.025Z,69.83
2019-01-28T12:01:08.755Z,65.07
2019-01-28T12:03:37.945Z,65.10
2019-01-28T12:06:07.132Z,61.07
2019-01-28T12:08:36.333Z,72.97
2019-01-28T12:11:05.688Z,103.50
2019-01-28T12:13:35.316Z,78.57
2019-01-28T12:16:04.485Z,74.90
2019-01-28T12:18:33.684Z,87.17
2019-01-28T12:21:02.957Z,73.97
2019-01-28T12:23:34.479Z,82.10
2019-01-28T12:26:03.667Z,77.63
2019-01-28T12:28:35.053Z,73.20
2019-01-28T12:31:04.378Z,49.33
2019-01-28T12:33:33.822Z,48.87
2019-01-28T12:36:03.005Z,57.83
2019-01-28T12:38:32.243Z,53.13
2019-01-28T12:41:01.509Z,61.80
2019-01-28T12:43:30.729Z,65.57
2019-01-28T12:45:59.938Z,62.37
2019-01-28T12:48:29.203Z,55.53
2019-01-28T12:50:58.320Z,55.57
2019-01-28T12:53:27.522Z,60.07
2019-01-28T12:55:57.025Z,63.17
2019-01-28T12:58:26.410Z,58.00
2019-01-28T13:01:00.347Z,55.63
2019-01-28T13:03:29.546Z,59.80
2019-01-28T13:05:58.743Z,65.90
2019-01-28T13:08:29.349Z,70.83
2019-01-28T13:10:58.599Z,56.30
2019-01-28T13:13:27.803Z,47.33
2019-01-28T13:15:57.367Z,55.47
2019-01-28T13:18:27.002Z,62.53
2019-01-28T13:20:56.168Z,75.70
2019-01-28T13:23:25.401Z,105.13
2019-01-28T13:25:55.051Z,74.97
2019-01-28T13:28:24.279Z,69.07
2019-01-28T13:30:53.512Z,91.63
2019-01-28T13:33:22.744Z,90.73
2019-01-28T13:35:51.948Z,66.97
2019-01-28T13:38:21.159Z,60.47
2019-01-28T13:40:50.354Z,71.80
2019-01-28T13:43:20.659Z,65.00
2019-01-28T13:45:49.896Z,71.63
2019-01-28T13:48:20.992Z,70.97
2019-01-28T13:50:50.112Z,93.13
2019-01-28T13:53:19.697Z,64.53
2019-01-28T13:55:48.985Z,66.97
2019-01-28T13:58:18.188Z,69.37
2019-01-28T14:00:47.389Z,77.90
2019-01-28T14:03:16.583Z,73.43
2019-01-28T14:05:46.207Z,72.20
2019-01-28T14:08:15.510Z,72.67
2019-01-28T14:10:44.771Z,85.60
2019-01-28T14:13:13.972Z,85.93
2019-01-28T14:15:43.213Z,85.87
2019-01-28T14:18:12.994Z,82.13
2019-01-28T14:20:42.960Z,79.13
2019-01-28T14:23:13.657Z,72.30
2019-01-28T14:25:42.960Z,64.20
2019-01-28T14:28:12.815Z,95.23
2019-01-28T14:30:44.394Z,94.57
2019-01-28T14:33:13.890Z,82.53
2019-01-28T14:35:43.120Z,72.60
2019-01-28T14:38:13.503Z,66.43
2019-01-28T14:40:43.706Z,70.57
2019-01-28T14:43:13.172Z,69.33
2019-01-28T14:45:43.305Z,61.30
2019-01-28T14:48:13.525Z,59.70
2019-01-28T14:50:42.717Z,65.67
2019-01-28T14:53:12.312Z,69.07
2019-01-28T14:55:41.523Z,68.97
2019-01-28T14:58:16.519Z,71.37
2019-01-28T15:00:45.939Z,69.40
2019-01-28T15:03:15.185Z,98.43
2019-01-28T15:05:44.363Z,73.83
2019-01-28T15:08:13.614Z,65.77
2019-01-28T15:10:42.810Z,69.97
2019-01-28T15:13:12.569Z,66.00
2019-01-28T15:15:42.263Z,67.40
2019-01-28T15:18:14.047Z,67.13
2019-01-28T15:20:43.266Z,73.83
2019-01-28T15:23:12.508Z,72.83
2019-01-28T15:25:41.691Z,65.23
2019-01-28T15:28:10.916Z,68.67
2019-01-28T15:30:40.160Z,66.33
2019-01-28T15:33:09.572Z,76.07
2019-01-28T15:35:38.952Z,75.13
2019-01-28T15:38:08.215Z,82.43
2019-01-28T15:40:37.600Z,77.43
2019-01-28T15:43:06.887Z,98.60
2019-01-28T15:45:38.604Z,93.07
2019-01-28T15:48:08.625Z,75.67
2019-01-28T15:50:38.609Z,88.13
2019-01-28T15:53:08.243Z,157.30
2019-01-28T15:55:39.314Z,174.90
2019-01-28T15:58:09.635Z,115.57
2019-01-28T16:00:39.253Z,222.83
2019-01-28T16:03:10.311Z,148.23
2019-01-28T16:05:41.298Z,90.10
2019-01-28T16:08:11.570Z,100.43
2019-01-28T16:10:40.857Z,93.60
2019-01-28T16:13:10.508Z,99.93
2019-01-28T16:15:43.004Z,128.00
2019-01-28T16:18:12.894Z,249.30
2019-01-28T16:20:42.535Z,177.90
2019-01-28T16:23:11.750Z,208.07
2019-01-28T16:25:41.029Z,191.83
2019-01-28T16:28:10.810Z,157.93
2019-01-28T16:30:42.274Z,252.23
2019-01-28T16:33:15.714Z,171.83
2019-01-28T16:35:44.980Z,205.03
2019-01-28T16:38:14.219Z,376.37
2019-01-28T16:40:45.783Z,326.40
2019-01-28T16:43:14.994Z,291.57
2019-01-28T16:45:44.243Z,210.57
2019-01-28T16:48:13.447Z,129.57
2019-01-28T16:50:43.063Z,142.37
2019-01-28T16:53:12.278Z,173.00
2019-01-28T16:55:42.156Z,254.93
2019-01-28T16:58:11.356Z,267.00
2019-01-28T17:00:42.946Z,202.90
2019-01-28T17:03:13.468Z,114.33
2019-01-28T17:05:43.025Z,93.50
2019-01-28T17:08:12.266Z,89.63
2019-01-28T17:10:41.550Z,158.50
2019-01-28T17:13:11.252Z,122.33
2019-01-28T17:15:40.502Z,120.60
2019-01-28T17:18:10.067Z,125.83
2019-01-28T17:20:39.340Z,352.83
2019-01-28T17:23:08.611Z,173.33
2019-01-28T17:25:40.733Z,615.23
2019-01-28T17:28:10.377Z,421.53
2019-01-28T17:30:41.690Z,490.33
2019-01-28T17:33:10.902Z,303.17
2019-01-28T17:35:40.128Z,126.07
2019-01-28T17:38:10.310Z,177.40
2019-01-28T17:40:42.593Z,164.93
2019-01-28T17:43:12.727Z,130.50
2019-01-28T17:45:42.043Z,301.40
2019-01-28T17:48:12.182Z,528.57
2019-01-28T17:50:43.601Z,302.70
2019-01-28T17:53:12.265Z,337.47
2019-01-28T17:55:41.964Z,156.57
2019-01-28T17:58:11.160Z,158.47
2019-01-28T18:00:52.672Z,111.60
2019-01-28T18:03:21.940Z,319.33
2019-01-28T18:05:51.161Z,182.77
2019-01-28T18:08:20.632Z,158.77
2019-01-28T18:10:49.885Z,146.07
2019-01-28T18:13:19.038Z,344.93
2019-01-28T18:15:48.265Z,459.13
2019-01-28T18:18:17.779Z,104.17
2019-01-28T18:20:51.857Z,156.77
2019-01-28T18:23:21.822Z,180.83
2019-01-28T18:25:50.950Z,138.10
2019-01-28T18:28:20.160Z,189.90
2019-01-28T18:30:51.667Z,166.13
2019-01-28T18:33:21.005Z,154.13
2019-01-28T18:35:50.208Z,126.60
2019-01-28T18:38:19.461Z,130.97
2019-01-28T18:40:48.925Z,132.93
2019-01-28T18:43:18.181Z,155.30
2019-01-28T18:45:47.410Z,251.57
2019-01-28T18:48:16.608Z,229.73
2019-01-28T18:50:45.867Z,120.40
2019-01-28T18:53:17.111Z,181.93
2019-01-28T18:55:46.357Z,108.83
2019-01-28T18:58:16.213Z,119.70
2019-01-28T19:00:45.534Z,127.97
2019-01-28T19:03:14.883Z,369.50
2019-01-28T19:05:54.979Z,332.13
2019-01-28T19:08:44.120Z,268.93
2019-01-28T19:11:19.049Z,239.67
2019-01-28T19:14:14.809Z,224.60
2019-01-28T19:17:06.003Z,178.57
2019-01-28T19:19:42.841Z,133.13
2019-01-28T19:22:12.131Z,131.00
2019-01-28T19:24:41.385Z,135.10
2019-01-28T19:27:10.589Z,210.03
2019-01-28T19:29:39.888Z,150.63
2019-01-28T19:32:09.150Z,126.60
2019-01-28T19:34:38.950Z,135.20
2019-01-28T19:37:08.190Z,141.60
2019-01-28T19:39:37.491Z,189.87
2019-01-28T19:42:07.133Z,184.73
2019-01-28T19:44:36.420Z,164.93
2019-01-28T19:47:08.099Z,184.37
2019-01-28T19:49:37.309Z,286.47
2019-01-28T19:52:06.567Z,203.77
2019-01-28T19:54:35.739Z,164.63
2019-01-28T19:57:04.960Z,196.27
2019-01-28T19:59:34.188Z,215.17
2019-01-28T20:02:03.424Z,171.63
2019-01-28T20:04:34.243Z,152.03
2019-01-28T20:07:03.569Z,125.70
2019-01-28T20:09:32.755Z,206.97
2019-01-28T20:12:02.282Z,150.00
2019-01-28T20:14:33.452Z,155.70
2019-01-28T20:17:02.749Z,258.47
2019-01-28T20:19:31.995Z,236.87
2019-01-28T20:22:01.286Z,210.40
2019-01-28T20:24:32.029Z,202.43
2019-01-28T20:27:01.401Z,156.13
2019-01-28T20:29:30.641Z,134.17
2019-01-28T20:32:00.345Z,232.80
2019-01-28T20:34:29.744Z,299.03
2019-01-28T20:36:59.028Z,254.40
2019-01-28T20:39:28.278Z,227.33
2019-01-28T20:42:00.030Z,272.50
2019-01-28T20:44:29.377Z,153.57
2019-01-28T20:46:58.588Z,350.30
2019-01-28T20:49:27.902Z,415.40
2019-01-28T20:51:57.167Z,310.07
2019-01-28T20:54:26.434Z,361.97
2019-01-28T20:56:55.814Z,350.87
2019-01-28T20:59:25.099Z,431.67
2019-01-28T21:01:55.434Z,339.03
2019-01-28T21:04:26.153Z,214.67
2019-01-28T21:06:55.665Z,243.90
2019-01-28T21:09:24.912Z,289.20
2019-01-28T21:11:54.108Z,264.10
2019-01-28T21:14:23.687Z,228.40
2019-01-28T21:16:53.235Z,197.73
2019-01-28T21:19:22.452Z,236.03
2019-01-28T21:21:51.659Z,184.17
2019-01-28T21:24:20.973Z,167.23
2019-01-28T21:26:50.185Z,132.60
2019-01-28T21:29:19.430Z,178.67
2019-01-28T21:31:48.999Z,167.63
2019-01-28T21:34:18.757Z,153.87
2019-01-28T21:37:02.258Z,146.93
2019-01-28T21:39:31.839Z,112.40
2019-01-28T21:42:01.112Z,160.60
2019-01-28T21:44:30.323Z,130.33
2019-01-28T21:46:59.554Z,114.37
2019-01-28T21:49:30.791Z,164.50
2019-01-28T21:52:00.004Z,153.27
2019-01-28T21:54:29.235Z,122.07
2019-01-28T21:57:01.406Z,127.17
2019-01-28T21:59:30.700Z,132.27
2019-01-28T22:01:59.964Z,145.33
2019-01-28T22:04:29.180Z,118.73
2019-01-28T22:06:58.418Z,127.83
2019-01-28T22:09:27.620Z,127.13
2019-01-28T22:11:56.827Z,135.67
2019-01-28T22:14:26.009Z,194.83
2019-01-28T22:16:55.232Z,245.50
2019-01-28T22:19:24.439Z,157.10
2019-01-28T22:21:59.031Z,122.87
2019-01-28T22:24:25.413Z,138.93
2019-01-28T22:26:54.613Z,125.00
2019-01-28T22:29:23.876Z,137.30
2019-01-28T22:31:53.103Z,142.93
2019-01-28T22:34:23.431Z,124.73
2019-01-28T22:36:52.596Z,113.87
2019-01-28T22:39:21.898Z,122.90
2019-01-28T22:41:51.077Z,109.00
2019-01-28T22:44:20.371Z,158.07
2019-01-28T22:46:49.563Z,176.17
2019-01-28T22:49:19.380Z,144.60
2019-01-28T22:51:48.639Z,97.60
2019-01-28T22:54:17.767Z,105.27
2019-01-28T22:56:47.011Z,116.93
2019-01-28T22:59:16.183Z,163.03
2019-01-28T23:01:45.961Z,143.13
2019-01-28T23:04:15.149Z,148.40
2019-01-28T23:06:44.336Z,120.93
2019-01-28T23:09:13.458Z,101.20
2019-01-28T23:11:42.617Z,104.10
2019-01-28T23:14:12.996Z,117.90
2019-01-28T23:16:42.179Z,113.73
2019-01-28T23:19:11.409Z,100.93
2019-01-28T23:21:40.588Z,93.57
2019-01-28T23:24:09.762Z,99.63
2019-01-28T23:26:38.935Z,99.60
2019-01-28T23:29:08.161Z,94.87
2019-01-28T23:31:37.334Z,191.63
2019-01-28T23:34:06.535Z,99.37
2019-01-28T23:36:35.794Z,92.80
2019-01-28T23:39:06.121Z,104.50
2019-01-28T23:41:35.298Z,86.83
2019-01-28T23:44:04.423Z,131.13
2019-01-28T23:46:33.647Z,121.30
2019-01-28T23:49:03.296Z,156.83
2019-01-28T23:51:32.478Z,233.00
2019-01-28T23:54:01.692Z,301.33
2019-01-28T23:56:30.872Z,202.90
2019-01-28T23:59:00.040Z,131.13
